Time;durP1;ratioP1;P1;durP2;ratioP2;P2;SDS_P1;SDS_P2;PMS_P1;PMS_P2;Temp;Humidity;BMP_temperature;BMP_pressure;BME280_temperature;BME280_humidity;BME280_pressure;Samples;Min_cycle;Max_cycle;Signal;HPM_P1;HPM_P2
2023/07/11 00:02:12;;;;;;;9.15;4.57;;;18.70;92.20;;;;;;4997860;28;20056;-76
2023/07/11 00:04:38;;;;;;;9.32;4.50;;;18.60;92.40;;;;;;5013396;28;20087;-76
2023/07/11 00:07:03;;;;;;;8.60;4.55;;;18.60;92.50;;;;;;5012292;28;20109;-76
2023/07/11 00:09:29;;;;;;;8.23;4.13;;;18.60;92.20;;;;;;5013966;28;20041;-76
2023/07/11 00:11:54;;;;;;;7.03;4.40;;;18.50;91.80;;;;;;5013043;28;20029;-76
2023/07/11 00:14:20;;;;;;;8.15;4.78;;;18.60;91.60;;;;;;5014949;28;20109;-76
2023/07/11 00:16:46;;;;;;;7.15;4.43;;;18.70;91.60;;;;;;5014750;28;20025;-76
2023/07/11 00:19:11;;;;;;;7.30;4.40;;;18.60;91.80;;;;;;5012178;28;20057;-76
2023/07/11 00:21:37;;;;;;;7.75;4.35;;;18.60;91.80;;;;;;5011258;28;20453;-76
2023/07/11 00:24:05;;;;;;;8.68;4.05;;;18.60;92.10;;;;;;5014218;28;20359;-76
2023/07/11 00:26:32;;;;;;;8.95;4.50;;;18.50;92.10;;;;;;4991812;28;20033;-76
2023/07/11 00:29:00;;;;;;;6.90;4.18;;;18.50;92.30;;;;;;5010831;28;20026;-76
2023/07/11 00:31:26;;;;;;;8.32;4.68;;;18.50;92.10;;;;;;5010009;28;20025;-76
2023/07/11 00:33:52;;;;;;;9.95;4.78;;;18.40;92.10;;;;;;5012739;28;20018;-76
2023/07/11 00:36:17;;;;;;;9.15;4.00;;;18.40;91.70;;;;;;4995341;28;20142;-76
2023/07/11 00:38:43;;;;;;;7.38;4.03;;;18.50;91.80;;;;;;5013233;28;20037;-76
2023/07/11 00:41:08;;;;;;;14.93;5.70;;;18.50;91.70;;;;;;5011898;28;20058;-76
2023/07/11 00:43:34;;;;;;;6.53;4.07;;;18.50;91.90;;;;;;5013316;28;20033;-75
2023/07/11 00:46:06;;;;;;;7.85;4.25;;;18.50;91.80;;;;;;4998905;28;20025;-75
2023/07/11 00:48:37;;;;;;;8.30;4.90;;;18.50;91.80;;;;;;5015201;28;20037;-75
2023/07/11 00:51:06;;;;;;;9.82;4.60;;;18.50;91.80;;;;;;5012415;28;20030;-75
2023/07/11 00:53:32;;;;;;;6.22;4.05;;;18.50;91.80;;;;;;5013054;28;20112;-76
2023/07/11 00:56:04;;;;;;;7.43;4.10;;;18.50;91.80;;;;;;4995482;28;20064;-76
2023/07/11 00:58:31;;;;;;;8.82;4.63;;;18.50;91.80;;;;;;5011601;28;20366;-76
2023/07/11 01:00:58;;;;;;;6.68;4.10;;;18.50;92.00;;;;;;5012443;28;20052;-76
2023/07/11 01:03:24;;;;;;;8.60;4.35;;;18.50;91.90;;;;;;5012928;28;20033;-76
2023/07/11 01:05:50;;;;;;;7.00;4.05;;;18.50;92.00;;;;;;5012551;28;20083;-76
2023/07/11 01:08:15;;;;;;;7.78;4.35;;;18.50;92.10;;;;;;4993555;28;20026;-75
2023/07/11 01:10:41;;;;;;;8.23;4.60;;;18.50;91.90;;;;;;5014954;28;20068;-76
2023/07/11 01:13:09;;;;;;;6.45;4.30;;;18.60;92.00;;;;;;5013571;28;20025;-76
2023/07/11 01:15:35;;;;;;;8.48;4.35;;;18.60;92.00;;;;;;5014385;28;20049;-76
2023/07/11 01:18:00;;;;;;;8.18;4.10;;;18.70;91.70;;;;;;5013646;28;20374;-76
2023/07/11 01:20:26;;;;;;;7.72;4.95;;;18.70;91.60;;;;;;5012972;28;20442;-76
2023/07/11 01:22:52;;;;;;;8.95;4.97;;;18.70;91.70;;;;;;5012746;28;20414;-76
2023/07/11 01:25:17;;;;;;;8.15;4.53;;;18.80;91.70;;;;;;5013858;28;20371;-76
2023/07/11 01:27:46;;;;;;;9.23;4.45;;;18.80;91.60;;;;;;5013010;28;20033;-76
2023/07/11 01:30:16;;;;;;;7.55;4.30;;;18.80;91.80;;;;;;5016527;28;20088;-76
2023/07/11 01:32:42;;;;;;;7.20;4.43;;;18.80;91.50;;;;;;5014802;28;20312;-76
2023/07/11 01:35:08;;;;;;;8.20;4.80;;;18.90;91.00;;;;;;5013319;28;20033;-76
2023/07/11 01:37:34;;;;;;;7.47;4.22;;;19.10;90.60;;;;;;5008417;28;20018;-76
2023/07/11 01:39:59;;;;;;;8.55;4.57;;;19.20;90.20;;;;;;5009472;28;20045;-76
2023/07/11 01:42:26;;;;;;;8.70;4.45;;;19.20;90.00;;;;;;5010306;28;20111;-76
2023/07/11 01:44:51;;;;;;;8.52;4.50;;;19.20;90.50;;;;;;5009661;28;20064;-76
2023/07/11 01:47:17;;;;;;;9.20;4.40;;;19.10;91.30;;;;;;5007063;28;20057;-76
2023/07/11 01:49:46;;;;;;;8.30;4.57;;;19.10;91.30;;;;;;5006592;28;20026;-76
2023/07/11 01:52:21;;;;;;;8.68;4.80;;;19.00;91.20;;;;;;4989560;28;20022;-76
2023/07/11 01:54:48;;;;;;;7.55;4.68;;;19.00;91.30;;;;;;5012508;28;20029;-76
2023/07/11 01:57:14;;;;;;;7.57;4.43;;;19.10;91.10;;;;;;5010531;28;20026;-76
2023/07/11 01:59:41;;;;;;;7.38;4.22;;;19.10;91.40;;;;;;5011069;28;20092;-76
2023/07/11 02:02:08;;;;;;;7.82;4.65;;;19.10;91.60;;;;;;5012871;28;20100;-76
2023/07/11 02:04:37;;;;;;;9.73;4.35;;;19.10;91.60;;;;;;5010916;28;20033;-76
2023/07/11 02:07:04;;;;;;;8.98;4.40;;;19.10;92.00;;;;;;5007572;28;20121;-76
2023/07/11 02:09:30;;;;;;;7.35;4.50;;;19.00;92.30;;;;;;4993432;28;20092;-75
2023/07/11 02:11:56;;;;;;;8.15;4.65;;;19.00;92.80;;;;;;5013566;28;20072;-76
2023/07/11 02:14:22;;;;;;;6.68;4.40;;;18.90;92.70;;;;;;4992599;28;20115;-76
2023/07/11 02:16:49;;;;;;;12.80;4.68;;;18.80;92.90;;;;;;5013301;28;20022;-76
2023/07/11 02:19:17;;;;;;;7.15;4.38;;;18.70;92.40;;;;;;5008667;28;20029;-76
2023/07/11 02:21:43;;;;;;;12.32;4.53;;;18.80;92.40;;;;;;5000863;28;20037;-76
2023/07/11 02:24:11;;;;;;;7.88;4.40;;;18.80;92.00;;;;;;5011322;28;20029;-76
2023/07/11 02:26:37;;;;;;;7.30;4.60;;;18.80;92.30;;;;;;5011222;28;20025;-76
2023/07/11 02:29:04;;;;;;;8.65;4.57;;;18.80;92.40;;;;;;5004208;28;20042;-76
2023/07/11 02:31:32;;;;;;;8.55;4.47;;;18.70;93.10;;;;;;5012952;28;20030;-76
2023/07/11 02:33:58;;;;;;;10.48;5.25;;;18.70;92.50;;;;;;5010495;28;20040;-76
2023/07/11 02:36:24;;;;;;;6.85;4.10;;;18.70;92.00;;;;;;5008804;28;20419;-76
2023/07/11 02:38:49;;;;;;;7.53;4.68;;;18.90;90.90;;;;;;5013648;28;20109;-76
2023/07/11 02:41:15;;;;;;;8.70;4.97;;;18.90;91.80;;;;;;5012765;28;20050;-76
2023/07/11 02:43:40;;;;;;;6.70;4.00;;;18.90;91.30;;;;;;5013962;28;20092;-77
2023/07/11 02:46:06;;;;;;;6.68;4.10;;;18.90;91.70;;;;;;5012558;28;20045;-76
2023/07/11 02:48:32;;;;;;;8.98;4.45;;;18.90;91.90;;;;;;5009497;28;20045;-76
2023/07/11 02:50:57;;;;;;;9.85;4.53;;;18.80;91.60;;;;;;5007812;28;20030;-76
2023/07/11 02:53:23;;;;;;;7.72;4.50;;;18.80;92.00;;;;;;5013428;28;20109;-77
2023/07/11 02:55:52;;;;;;;8.90;4.63;;;18.80;92.30;;;;;;5014719;28;20100;-76
2023/07/11 02:58:18;;;;;;;7.80;4.57;;;18.80;91.90;;;;;;5014397;28;20104;-76
2023/07/11 03:00:52;;;;;;;7.10;4.40;;;18.70;92.20;;;;;;5013724;28;20097;-77
2023/07/11 03:03:18;;;;;;;9.88;4.78;;;18.70;91.90;;;;;;5011920;28;20032;-76
2023/07/11 03:05:45;;;;;;;8.48;4.72;;;18.70;91.90;;;;;;5014818;28;20030;-77
2023/07/11 03:08:11;;;;;;;7.20;4.53;;;18.70;91.60;;;;;;5009392;28;20022;-77
2023/07/11 03:10:37;;;;;;;6.93;4.63;;;18.70;91.40;;;;;;5012861;28;20022;-76
2023/07/11 03:13:03;;;;;;;8.43;4.47;;;18.70;91.90;;;;;;5010912;28;20061;-77
2023/07/11 03:15:28;;;;;;;8.13;4.45;;;18.70;91.80;;;;;;4996642;28;20057;-76
2023/07/11 03:17:54;;;;;;;7.55;4.32;;;18.70;91.80;;;;;;5010757;28;20026;-77
2023/07/11 03:20:19;;;;;;;8.65;4.40;;;18.70;91.40;;;;;;5007734;28;20048;-76
2023/07/11 03:22:45;;;;;;;9.13;4.05;;;18.70;90.10;;;;;;5008690;28;20061;-77
2023/07/11 03:25:11;;;;;;;7.40;4.50;;;18.90;89.70;;;;;;5007211;28;21679;-77
2023/07/11 03:27:36;;;;;;;7.05;4.20;;;18.90;89.90;;;;;;5007317;28;20416;-77
2023/07/11 03:30:02;;;;;;;7.22;4.28;;;19.00;88.40;;;;;;5007690;28;20498;-77
2023/07/11 03:32:27;;;;;;;8.68;4.10;;;19.20;86.40;;;;;;5008708;28;20412;-77
2023/07/11 03:34:56;;;;;;;8.27;4.10;;;19.40;85.30;;;;;;5007643;28;20030;-76
2023/07/11 03:37:21;;;;;;;7.75;4.10;;;19.50;85.70;;;;;;5006168;28;20041;-76
2023/07/11 03:39:47;;;;;;;8.05;4.30;;;19.60;86.20;;;;;;5006833;28;20034;-75
2023/07/11 03:42:12;;;;;;;7.40;4.40;;;19.70;85.10;;;;;;5010855;28;20058;-76
2023/07/11 03:44:38;;;;;;;10.88;5.22;;;19.80;84.00;;;;;;5009788;28;20040;-75
2023/07/11 03:47:04;;;;;;;8.48;4.57;;;20.10;82.30;;;;;;5011651;28;20042;-75
2023/07/11 03:49:29;;;;;;;6.63;4.45;;;20.50;80.90;;;;;;5010926;28;20327;-77
2023/07/11 03:51:55;;;;;;;6.40;3.97;;;20.80;81.20;;;;;;4991831;28;20327;-77
2023/07/11 03:54:23;;;;;;;9.02;4.18;;;21.10;80.10;;;;;;5009794;28;20662;-77
2023/07/11 03:56:51;;;;;;;6.80;3.97;;;21.10;80.00;;;;;;5010593;28;20322;-76
2023/07/11 03:59:17;;;;;;;7.35;4.55;;;21.00;80.10;;;;;;5014941;28;20049;-77
2023/07/11 04:01:43;;;;;;;6.90;4.15;;;20.90;82.00;;;;;;5017931;28;20094;-76
2023/07/11 04:04:08;;;;;;;9.07;4.60;;;20.80;83.10;;;;;;5013506;28;20070;-76
2023/07/11 04:06:34;;;;;;;8.15;4.70;;;20.60;84.30;;;;;;5009632;28;20084;-75
2023/07/11 04:09:00;;;;;;;9.80;4.35;;;20.30;84.70;;;;;;5009301;28;20034;-76
2023/07/11 04:11:25;;;;;;;9.50;5.20;;;20.20;85.20;;;;;;5019416;28;20067;-77
2023/07/11 04:13:51;;;;;;;9.77;5.05;;;20.00;85.70;;;;;;5015841;28;20030;-76
2023/07/11 04:16:17;;;;;;;7.88;4.68;;;20.00;85.60;;;;;;5015404;28;20079;-77
2023/07/11 04:18:42;;;;;;;9.23;4.68;;;20.00;86.00;;;;;;5011446;28;20037;-76
2023/07/11 04:21:08;;;;;;;7.90;4.60;;;19.90;86.70;;;;;;5012525;28;20029;-77
2023/07/11 04:23:33;;;;;;;10.38;5.07;;;19.90;86.60;;;;;;5004244;28;20088;-77
2023/07/11 04:25:59;;;;;;;10.07;4.35;;;19.90;86.60;;;;;;5008131;28;20431;-76
2023/07/11 04:28:25;;;;;;;9.02;4.95;;;20.00;85.20;;;;;;5009055;28;20108;-76
2023/07/11 04:30:50;;;;;;;8.70;4.70;;;20.10;86.40;;;;;;5012426;28;20025;-77
2023/07/11 04:33:16;;;;;;;8.27;4.63;;;20.00;86.90;;;;;;5011094;28;20105;-77
2023/07/11 04:35:43;;;;;;;8.52;5.07;;;19.90;86.80;;;;;;5013857;28;20037;-75
2023/07/11 04:38:08;;;;;;;8.88;5.07;;;19.80;87.40;;;;;;5006925;28;20026;-76
2023/07/11 04:40:34;;;;;;;11.35;4.88;;;19.80;87.30;;;;;;5012650;28;20064;-77
2023/07/11 04:43:00;;;;;;;7.60;4.63;;;19.70;87.50;;;;;;5013637;28;20030;-76
2023/07/11 04:45:28;;;;;;;8.75;4.78;;;19.80;87.60;;;;;;5014511;28;20032;-77
2023/07/11 04:47:54;;;;;;;7.72;4.80;;;19.80;87.20;;;;;;5018397;28;20084;-77
2023/07/11 04:50:20;;;;;;;8.18;4.70;;;19.90;87.60;;;;;;5013787;28;20037;-77
2023/07/11 04:52:45;;;;;;;7.53;4.75;;;19.90;87.70;;;;;;5011181;28;20026;-77
2023/07/11 04:55:12;;;;;;;8.65;4.97;;;19.90;88.30;;;;;;5008290;28;20030;-77
2023/07/11 04:57:37;;;;;;;11.38;6.15;;;19.90;87.90;;;;;;5015986;28;20034;-77
2023/07/11 05:00:05;;;;;;;11.57;5.40;;;19.90;88.00;;;;;;5013997;28;20148;-77
2023/07/11 05:02:31;;;;;;;11.30;4.95;;;19.90;88.10;;;;;;5013335;28;20037;-77
2023/07/11 05:04:56;;;;;;;9.40;4.65;;;19.90;88.00;;;;;;5013205;28;20491;-76
2023/07/11 05:07:22;;;;;;;9.13;4.78;;;19.90;88.60;;;;;;5013229;28;20034;-77
2023/07/11 05:09:48;;;;;;;9.63;4.70;;;20.00;87.90;;;;;;5013810;28;20041;-77
2023/07/11 05:12:15;;;;;;;12.18;4.93;;;20.00;87.30;;;;;;5015149;28;20461;-77
2023/07/11 05:14:41;;;;;;;10.25;4.72;;;20.00;87.70;;;;;;5013074;28;20025;-77
2023/07/11 05:17:06;;;;;;;8.07;4.68;;;20.00;87.80;;;;;;5016719;28;20034;-77
2023/07/11 05:19:32;;;;;;;7.55;5.20;;;20.10;87.90;;;;;;5014142;28;20353;-77
2023/07/11 05:21:57;;;;;;;8.73;5.20;;;20.20;86.40;;;;;;5014712;28;20034;-77
2023/07/11 05:24:23;;;;;;;8.85;4.78;;;20.30;86.60;;;;;;5013522;28;20022;-76
2023/07/11 05:26:48;;;;;;;8.73;4.97;;;20.40;85.90;;;;;;4995282;28;20029;-77
2023/07/11 05:29:14;;;;;;;7.50;4.70;;;20.60;85.90;;;;;;5014232;28;20318;-76
2023/07/11 05:31:39;;;;;;;8.23;4.78;;;20.80;85.10;;;;;;5012093;28;20104;-77
2023/07/11 05:34:05;;;;;;;9.15;4.40;;;21.00;84.40;;;;;;4992542;28;20030;-77
2023/07/11 05:36:33;;;;;;;8.90;4.45;;;21.20;83.70;;;;;;4995485;28;20124;-77
2023/07/11 05:39:10;;;;;;;11.80;4.55;;;21.60;80.30;;;;;;5014295;28;20084;-77
2023/07/11 05:41:38;;;;;;;7.38;4.75;;;22.00;79.70;;;;;;5012185;28;20061;-77
2023/07/11 05:44:04;;;;;;;8.10;5.00;;;22.40;78.90;;;;;;4996153;28;20083;-77
2023/07/11 05:46:30;;;;;;;7.63;4.47;;;22.70;77.50;;;;;;5012950;28;20116;-76
2023/07/11 05:48:57;;;;;;;11.68;4.82;;;22.90;76.50;;;;;;5011793;28;20509;-76
2023/07/11 05:51:23;;;;;;;7.95;4.22;;;23.10;75.80;;;;;;5010680;28;20041;-76
2023/07/11 05:53:50;;;;;;;7.53;4.68;;;23.20;76.50;;;;;;5014985;28;20061;-77
2023/07/11 05:56:17;;;;;;;8.55;4.90;;;23.40;75.60;;;;;;5015622;28;20036;-77
2023/07/11 05:58:43;;;;;;;10.38;4.68;;;23.50;74.90;;;;;;4999011;28;20023;-77
2023/07/11 06:01:14;;;;;;;7.30;4.65;;;23.60;74.60;;;;;;4994205;28;20052;-77
2023/07/11 06:03:40;;;;;;;10.70;4.82;;;23.70;74.90;;;;;;5013018;28;20057;-77
2023/07/11 06:06:11;;;;;;;7.63;4.70;;;23.80;74.20;;;;;;5006081;28;20080;-77
2023/07/11 06:08:36;;;;;;;7.28;4.82;;;23.90;74.80;;;;;;5011877;28;20113;-77
2023/07/11 06:11:04;;;;;;;7.80;5.05;;;24.00;74.40;;;;;;4993352;28;20117;-77
2023/07/11 06:13:31;;;;;;;7.82;4.85;;;24.10;74.00;;;;;;5016131;28;20021;-77
2023/07/11 06:16:02;;;;;;;11.57;4.60;;;24.20;73.90;;;;;;5013309;28;20030;-77
2023/07/11 06:18:32;;;;;;;7.50;4.72;;;24.40;73.50;;;;;;5014265;28;20354;-77
2023/07/11 06:20:57;;;;;;;8.32;4.78;;;24.50;73.80;;;;;;5009881;28;20624;-77
2023/07/11 06:23:23;;;;;;;7.65;4.72;;;24.60;73.00;;;;;;5012811;28;20038;-77
2023/07/11 06:25:49;;;;;;;8.32;5.13;;;24.70;73.00;;;;;;5014165;28;20026;-77
2023/07/11 06:28:14;;;;;;;8.13;4.78;;;24.80;73.60;;;;;;5013287;28;20042;-77
2023/07/11 06:30:41;;;;;;;11.95;5.45;;;25.00;73.60;;;;;;5012669;28;20021;-77
2023/07/11 06:33:09;;;;;;;8.07;4.90;;;25.10;73.20;;;;;;5012981;28;20026;-77
2023/07/11 06:35:39;;;;;;;7.10;4.65;;;25.10;73.80;;;;;;5011096;28;20030;-77
2023/07/11 06:38:05;;;;;;;8.85;4.75;;;25.30;73.10;;;;;;5008307;28;20109;-77
2023/07/11 06:40:30;;;;;;;7.40;4.47;;;25.50;73.10;;;;;;5010690;28;20447;-76
2023/07/11 06:42:56;;;;;;;9.85;4.80;;;25.60;73.70;;;;;;5013429;28;20034;-77
2023/07/11 06:45:21;;;;;;;10.15;4.50;;;25.80;73.60;;;;;;5015292;28;20062;-77
2023/07/11 06:47:47;;;;;;;9.32;4.75;;;25.90;73.50;;;;;;5012594;28;20026;-76
2023/07/11 06:50:13;;;;;;;18.00;5.97;;;25.90;73.00;;;;;;5010625;28;20033;-77
2023/07/11 06:52:39;;;;;;;11.57;5.10;;;26.10;73.00;;;;;;5013883;28;20423;-77
2023/07/11 06:55:05;;;;;;;7.75;5.00;;;26.10;73.40;;;;;;4994568;28;20334;-77
2023/07/11 06:57:30;;;;;;;10.43;5.25;;;26.20;74.30;;;;;;4996811;28;20030;-77
2023/07/11 06:59:56;;;;;;;10.35;5.75;;;26.30;74.70;;;;;;5014207;28;20029;-77
2023/07/11 07:02:21;;;;;;;8.13;5.40;;;26.40;73.70;;;;;;5015182;28;20034;-77
2023/07/11 07:04:47;;;;;;;8.10;4.78;;;26.40;73.10;;;;;;4995701;28;20032;-77
2023/07/11 07:07:12;;;;;;;8.77;5.40;;;26.50;73.60;;;;;;5014716;28;20105;-77
2023/07/11 07:09:38;;;;;;;9.07;5.70;;;26.60;73.10;;;;;;5014872;28;20112;-77
2023/07/11 07:12:04;;;;;;;8.95;5.35;;;26.70;73.50;;;;;;5013049;28;20068;-77
2023/07/11 07:14:29;;;;;;;9.20;5.30;;;26.70;73.40;;;;;;5013076;28;20026;-77
2023/07/11 07:16:58;;;;;;;10.95;5.57;;;26.80;73.60;;;;;;5016990;28;20053;-76
2023/07/11 07:19:24;;;;;;;10.43;5.28;;;26.80;74.00;;;;;;5001557;28;20057;-77
2023/07/11 07:21:49;;;;;;;9.27;5.18;;;27.00;73.40;;;;;;5016314;28;20053;-77
2023/07/11 07:24:15;;;;;;;10.90;5.30;;;27.10;74.10;;;;;;5016573;28;20058;-78
2023/07/11 07:26:41;;;;;;;8.88;5.28;;;27.20;73.40;;;;;;5017700;28;20084;-77
2023/07/11 07:29:07;;;;;;;8.57;5.05;;;27.40;73.20;;;;;;5017171;28;20033;-77
2023/07/11 07:31:32;;;;;;;9.07;5.20;;;27.80;71.80;;;;;;5016390;28;20505;-77
2023/07/11 07:33:58;;;;;;;7.50;4.90;;;28.30;70.60;;;;;;5019211;28;20018;-77
2023/07/11 07:36:23;;;;;;;8.85;4.95;;;29.00;68.70;;;;;;5015698;28;20084;-77
2023/07/11 07:38:49;;;;;;;9.65;5.00;;;29.70;68.10;;;;;;5016676;28;20080;-77
2023/07/11 07:41:15;;;;;;;7.68;4.88;;;30.30;65.70;;;;;;5016087;28;20129;-77
2023/07/11 07:43:42;;;;;;;9.98;4.75;;;30.80;65.60;;;;;;5016921;28;20025;-77
2023/07/11 07:46:15;;;;;;;8.98;4.55;;;31.40;64.10;;;;;;5017323;28;20042;-77
2023/07/11 07:48:43;;;;;;;8.48;4.80;;;31.90;63.40;;;;;;5000019;28;20454;-77
2023/07/11 07:51:16;;;;;;;8.45;4.30;;;32.70;62.30;;;;;;5013445;28;20366;-77
2023/07/11 07:53:42;;;;;;;8.88;4.35;;;32.90;62.00;;;;;;5016226;28;20166;-77
2023/07/11 07:56:14;;;;;;;8.10;4.25;;;33.20;61.70;;;;;;5013921;28;20076;-77
2023/07/11 07:58:40;;;;;;;8.50;4.85;;;33.30;61.50;;;;;;5017391;28;20330;-77
2023/07/11 08:01:06;;;;;;;9.75;4.57;;;33.40;61.20;;;;;;5018401;28;20030;-77
2023/07/11 08:03:33;;;;;;;8.40;4.88;;;33.70;60.40;;;;;;5017183;28;20041;-76
2023/07/11 08:05:59;;;;;;;10.15;5.03;;;33.90;60.40;;;;;;5015978;28;20041;-76
2023/07/11 08:08:25;;;;;;;12.07;5.15;;;34.20;60.70;;;;;;5018518;28;20030;-75
2023/07/11 08:10:53;;;;;;;10.02;5.22;;;33.60;60.20;;;;;;5017249;28;20157;-75
2023/07/11 08:13:19;;;;;;;7.75;4.70;;;33.30;60.40;;;;;;5017768;28;20045;-75
2023/07/11 08:15:44;;;;;;;7.63;5.00;;;33.90;60.40;;;;;;5018599;28;20335;-78
2023/07/11 08:18:10;;;;;;;10.20;5.32;;;34.70;59.00;;;;;;5018525;28;20029;-77
2023/07/11 08:20:37;;;;;;;7.65;4.95;;;34.80;58.80;;;;;;5015905;28;20036;-77
2023/07/11 08:23:03;;;;;;;11.65;5.15;;;33.90;59.20;;;;;;5017245;28;20030;-78
2023/07/11 08:25:28;;;;;;;8.10;4.30;;;33.80;60.40;;;;;;5000909;28;20026;-78
2023/07/11 08:27:54;;;;;;;8.38;4.85;;;33.70;59.30;;;;;;5038383;23;20064;-76
2023/07/11 08:30:20;;;;;;;9.60;5.22;;;34.10;58.90;;;;;;5035733;28;20037;-77
2023/07/11 08:32:46;;;;;;;8.05;4.90;;;34.50;58.50;;;;;;5037901;28;20064;-76
2023/07/11 08:35:11;;;;;;;9.23;5.15;;;34.00;59.40;;;;;;5027137;28;20088;-76
2023/07/11 08:37:37;;;;;;;7.68;4.35;;;34.10;60.00;;;;;;5035574;28;20032;-77
2023/07/11 08:40:03;;;;;;;11.90;5.15;;;33.80;59.20;;;;;;5035556;28;20041;-71
2023/07/11 08:42:43;;;;;;;14.52;5.65;;;33.50;60.00;;;;;;5037677;28;20353;-93
2023/07/11 08:45:20;;;;;;;10.25;5.50;;;32.90;61.90;;;;;;5036719;28;20029;-76
2023/07/11 08:48:00;;;;;;;9.23;5.40;;;32.60;62.10;;;;;;5034389;28;20452;-76
2023/07/11 08:50:29;;;;;;;9.98;5.25;;;33.40;61.40;;;;;;5036639;28;20025;-77
2023/07/11 08:53:07;;;;;;;8.98;5.18;;;32.80;62.10;;;;;;5017630;28;20092;-77
2023/07/11 08:55:38;;;;;;;7.70;4.85;;;33.00;60.60;;;;;;5013851;28;20096;-77
2023/07/11 08:58:18;;;;;;;9.32;5.20;;;33.20;61.40;;;;;;5016320;28;20108;-75
2023/07/11 09:00:47;;;;;;;8.32;5.07;;;33.20;60.50;;;;;;5017569;28;20033;-77
2023/07/11 09:03:22;;;;;;;9.75;4.90;;;33.90;60.60;;;;;;5017598;28;20077;-76
2023/07/11 09:05:57;;;;;;;8.88;4.68;;;34.40;59.70;;;;;;5021856;28;20414;-76
2023/07/11 09:08:25;;;;;;;10.98;5.05;;;34.50;57.40;;;;;;5017340;28;20034;-77
2023/07/11 09:11:09;;;;;;;10.43;5.20;;;34.20;57.30;;;;;;5017321;28;20106;-76
2023/07/11 09:13:56;;;;;;;9.82;4.47;;;34.80;55.80;;;;;;5031297;28;20448;-76
2023/07/11 09:16:37;;;;;;;10.55;4.82;;;35.40;55.20;;;;;;5036233;28;20021;-76
2023/07/11 09:19:09;;;;;;;11.65;5.28;;;35.00;54.60;;;;;;5035959;28;20323;-76
2023/07/11 09:21:43;;;;;;;10.70;4.65;;;34.70;55.40;;;;;;5015316;28;20034;-76
2023/07/11 09:24:28;;;;;;;7.57;4.20;;;34.50;56.10;;;;;;5015612;28;20034;-76
2023/07/11 09:26:55;;;;;;;10.30;5.18;;;34.70;54.30;;;;;;5016177;28;20101;-76
2023/07/11 09:29:20;;;;;;;8.57;5.28;;;35.00;54.00;;;;;;5015027;28;20128;-76
2023/07/11 09:31:56;;;;;;;9.25;5.43;;;35.00;56.00;;;;;;5013974;28;20521;-76
2023/07/11 09:34:37;;;;;;;8.77;5.28;;;34.80;54.50;;;;;;4997429;28;20023;-76
2023/07/11 09:37:30;;;;;;;10.25;4.65;;;35.00;54.50;;;;;;4996027;28;20296;-76
2023/07/11 09:40:16;;;;;;;10.13;4.97;;;35.70;53.80;;;;;;5007522;28;20025;-76
2023/07/11 09:42:51;;;;;;;7.85;5.15;;;36.70;53.80;;;;;;5016996;28;20121;-76
2023/07/11 09:45:20;;;;;;;8.57;5.50;;;36.80;53.70;;;;;;5014899;28;20044;-76
2023/07/11 09:47:54;;;;;;;8.68;5.47;;;36.00;55.00;;;;;;5016766;28;20443;-76
2023/07/11 09:50:42;;;;;;;12.43;5.45;;;35.90;56.30;;;;;;5016653;28;20033;-76
2023/07/11 09:53:15;;;;;;;8.15;5.03;;;36.20;55.40;;;;;;5013726;28;20300;-76
2023/07/11 09:55:41;;;;;;;9.60;5.20;;;36.40;55.20;;;;;;4997088;28;20073;-76
2023/07/11 09:58:14;;;;;;;12.63;5.47;;;36.60;54.80;;;;;;5025144;28;20341;-76
2023/07/11 10:00:48;;;;;;;11.25;5.20;;;35.00;57.30;;;;;;5036343;28;20049;-75
2023/07/11 10:03:21;;;;;;;10.93;5.13;;;34.10;59.70;;;;;;5036350;28;20032;-75
2023/07/11 10:05:50;;;;;;;9.20;5.60;;;34.70;58.70;;;;;;5036212;28;20038;-75
2023/07/11 10:08:22;;;;;;;11.20;5.35;;;34.90;58.30;;;;;;5035094;28;20025;-75
2023/07/11 10:10:51;;;;;;;12.43;5.43;;;34.30;58.50;;;;;;5033207;28;20033;-76
2023/07/11 10:13:18;;;;;;;8.95;5.78;;;33.20;60.80;;;;;;5015326;28;20056;-76
2023/07/11 10:15:47;;;;;;;12.15;6.13;;;32.30;62.00;;;;;;5016478;28;20018;-76
2023/07/11 10:18:23;;;;;;;10.68;5.60;;;31.80;63.30;;;;;;5016356;28;20040;-76
2023/07/11 10:20:53;;;;;;;8.75;5.57;;;32.80;61.30;;;;;;5016422;28;20079;-75
2023/07/11 10:23:24;;;;;;;12.85;6.35;;;33.80;60.70;;;;;;5015549;28;20407;-76
2023/07/11 10:26:13;;;;;;;10.40;5.55;;;34.20;59.30;;;;;;5017148;28;20030;-75
2023/07/11 10:28:43;;;;;;;8.43;5.35;;;34.60;58.30;;;;;;5034810;28;20357;-75
2023/07/11 10:31:20;;;;;;;8.95;5.38;;;35.60;57.20;;;;;;5036135;28;20052;-75
2023/07/11 10:34:19;;;;;;;11.43;5.53;;;35.80;56.30;;;;;;5015891;28;20026;-76
2023/07/11 10:36:49;;;;;;;8.48;5.15;;;36.00;56.00;;;;;;5010191;28;20515;-76
2023/07/11 10:39:21;;;;;;;10.70;5.40;;;36.00;56.00;;;;;;5016135;28;20038;-75
2023/07/11 10:41:55;;;;;;;10.73;5.38;;;36.70;55.80;;;;;;5014404;28;20034;-75
2023/07/11 10:44:30;;;;;;;10.90;5.72;;;37.60;54.10;;;;;;5035790;28;20026;-76
2023/07/11 10:46:56;;;;;;;10.93;5.25;;;37.70;53.20;;;;;;5035834;28;20033;-76
2023/07/11 10:49:28;;;;;;;10.80;5.78;;;37.10;54.20;;;;;;5035889;28;20107;-75
2023/07/11 10:52:16;;;;;;;10.10;5.60;;;37.00;54.80;;;;;;5032685;28;20130;-76
2023/07/11 10:54:46;;;;;;;13.57;5.72;;;36.00;55.90;;;;;;5019942;28;20026;-76
2023/07/11 10:57:35;;;;;;;11.85;5.53;;;35.90;56.70;;;;;;5017968;28;20105;-76
2023/07/11 11:00:08;;;;;;;10.70;5.97;;;36.30;56.40;;;;;;5019699;28;20080;-76
2023/07/11 11:03:14;;;;;;;9.98;5.13;;;36.70;54.70;;;;;;5028055;28;20326;-76
2023/07/11 11:05:56;;;;;;;10.50;5.45;;;36.50;55.20;;;;;;5039593;28;20489;-76
2023/07/11 11:08:40;;;;;;;8.38;5.40;;;36.80;55.80;;;;;;5038066;28;20022;-75
2023/07/11 11:11:35;;;;;;;10.55;5.45;;;37.00;55.80;;;;;;5025632;28;20414;-75
2023/07/11 11:14:21;;;;;;;13.20;5.35;;;37.10;55.20;;;;;;5000951;28;20069;-75
2023/07/11 11:17:14;;;;;;;10.73;5.97;;;37.00;55.50;;;;;;5018134;28;20496;-74
2023/07/11 11:19:49;;;;;;;9.13;5.45;;;36.50;56.30;;;;;;5019748;28;20088;-75
2023/07/11 11:22:53;;;;;;;8.40;5.60;;;36.10;57.60;;;;;;5018224;28;20401;-76
2023/07/11 11:25:46;;;;;;;12.45;5.53;;;36.30;57.30;;;;;;5018397;28;20030;-76
2023/07/11 11:28:24;;;;;;;11.18;5.82;;;36.40;56.70;;;;;;4999560;28;20081;-76
2023/07/11 11:30:55;;;;;;;10.48;6.30;;;36.30;56.40;;;;;;5006160;28;20109;-76
2023/07/11 11:34:14;;;;;;;8.82;5.70;;;35.40;58.30;;;;;;5018328;28;20373;-76
2023/07/11 11:36:53;;;;;;;8.68;5.50;;;35.90;58.70;;;;;;4996527;28;20037;-76
2023/07/11 11:39:48;;;;;;;10.70;6.07;;;36.60;56.80;;;;;;5019148;28;20038;-75
2023/07/11 11:42:24;;;;;;;11.82;5.85;;;36.60;56.50;;;;;;5034627;28;20032;-75
2023/07/11 11:44:58;;;;;;;10.60;6.57;;;36.20;57.40;;;;;;5034242;28;20088;-75
2023/07/11 11:47:26;;;;;;;12.88;6.63;;;36.40;56.90;;;;;;5018963;28;20026;-75
2023/07/11 11:49:52;;;;;;;9.63;5.95;;;36.20;57.50;;;;;;5018962;28;20038;-76
2023/07/11 11:52:21;;;;;;;8.40;5.53;;;36.60;57.00;;;;;;5033749;28;20041;-75
2023/07/11 11:54:50;;;;;;;14.68;6.32;;;37.30;55.20;;;;;;5038854;28;20366;-75
2023/07/11 11:57:26;;;;;;;10.93;5.45;;;37.60;56.30;;;;;;5038623;28;20039;-76
2023/07/11 11:59:52;;;;;;;8.52;5.18;;;37.80;54.90;;;;;;5031394;28;20407;-76
2023/07/11 12:02:29;;;;;;;13.68;5.85;;;38.00;53.90;;;;;;5016472;28;20054;-76
2023/07/11 12:05:16;;;;;;;9.43;5.75;;;38.30;54.00;;;;;;5016703;28;20028;-76
2023/07/11 12:07:43;;;;;;;8.65;5.25;;;37.40;54.80;;;;;;5017527;28;20026;-76
2023/07/11 12:10:08;;;;;;;11.68;6.10;;;36.60;56.50;;;;;;5018392;28;20109;-75
2023/07/11 12:12:37;;;;;;;10.07;6.30;;;36.30;57.00;;;;;;5021779;28;20496;-76
2023/07/11 12:15:11;;;;;;;12.57;5.60;;;36.40;55.90;;;;;;5038461;28;20025;-76
2023/07/11 12:17:40;;;;;;;10.77;6.20;;;36.00;56.70;;;;;;5037443;28;20418;-76
2023/07/11 12:20:05;;;;;;;11.90;6.10;;;35.90;57.80;;;;;;5038262;28;20060;-76
2023/07/11 12:22:37;;;;;;;11.02;5.97;;;35.80;57.10;;;;;;5036901;28;20030;-76
2023/07/11 12:25:05;;;;;;;9.90;6.03;;;35.30;57.70;;;;;;5038178;28;20034;-76
2023/07/11 12:27:31;;;;;;;11.20;6.65;;;34.90;58.50;;;;;;5030018;28;20036;-76
2023/07/11 12:30:17;;;;;;;8.82;5.85;;;34.40;59.50;;;;;;5038074;28;20421;-76
2023/07/11 12:32:43;;;;;;;12.88;6.43;;;34.90;58.60;;;;;;5037897;28;20068;-76
2023/07/11 12:35:08;;;;;;;9.48;6.60;;;35.60;56.70;;;;;;5031198;28;20644;-76
2023/07/11 12:38:10;;;;;;;13.02;6.55;;;35.40;57.50;;;;;;5015566;28;20038;-76
2023/07/11 12:40:45;;;;;;;11.50;6.45;;;36.20;56.10;;;;;;5018022;28;20036;-76
2023/07/11 12:43:30;;;;;;;9.93;5.38;;;37.00;56.30;;;;;;5018135;28;20117;-76
2023/07/11 12:46:06;;;;;;;11.00;6.13;;;37.50;54.80;;;;;;5017865;28;20026;-77
2023/07/11 12:48:40;;;;;;;9.20;5.75;;;38.10;53.60;;;;;;5017827;28;20096;-76
2023/07/11 12:51:27;;;;;;;13.05;6.00;;;38.30;53.40;;;;;;5016785;28;20323;-76
2023/07/11 12:54:12;;;;;;;13.98;6.00;;;38.30;53.10;;;;;;5030987;28;20433;-76
2023/07/11 12:56:51;;;;;;;11.93;5.55;;;38.70;52.90;;;;;;5036478;28;20087;-76